createdAt,value
2022-12-25T00:00:47.022Z,18.60
2022-12-25T00:03:45.461Z,21.00
2022-12-25T00:06:43.292Z,20.93
2022-12-25T00:09:40.957Z,19.03
2022-12-25T00:12:38.746Z,22.13
2022-12-25T00:15:39.460Z,21.00
2022-12-25T00:18:37.244Z,23.67
2022-12-25T00:21:34.920Z,25.13
2022-12-25T00:24:32.648Z,25.47
2022-12-25T00:27:34.337Z,26.97
2022-12-25T00:30:32.101Z,26.80
2022-12-25T00:33:29.798Z,26.37
2022-12-25T00:36:27.911Z,26.27
2022-12-25T00:39:25.855Z,27.40
2022-12-25T00:42:24.458Z,24.63
2022-12-25T00:45:22.137Z,26.10
2022-12-25T00:48:19.879Z,24.93
2022-12-25T00:51:17.514Z,23.13
2022-12-25T00:54:15.251Z,25.30
2022-12-25T00:57:12.936Z,23.67
2022-12-25T01:00:11.329Z,23.53
2022-12-25T01:03:08.924Z,22.53
2022-12-25T01:06:08.510Z,21.77
2022-12-25T01:09:24.595Z,22.20
2022-12-25T01:12:22.641Z,21.33
2022-12-25T01:15:20.681Z,19.87
2022-12-25T01:18:18.918Z,20.30
2022-12-25T01:21:18.574Z,20.60
2022-12-25T01:24:16.304Z,19.77
2022-12-25T01:27:13.943Z,19.00
2022-12-25T01:30:12.387Z,21.73
2022-12-25T01:33:10.061Z,19.80
2022-12-25T01:36:21.973Z,22.90
2022-12-25T01:39:19.731Z,20.80
2022-12-25T01:42:20.195Z,20.13
2022-12-25T01:45:36.173Z,20.50
2022-12-25T01:48:37.707Z,20.23
2022-12-25T01:51:41.765Z,23.43
2022-12-25T01:54:44.082Z,22.77
2022-12-25T01:57:43.635Z,23.43
2022-12-25T02:00:41.442Z,25.87
2022-12-25T02:03:42.812Z,23.53
2022-12-25T02:06:40.653Z,23.70
2022-12-25T02:09:38.745Z,23.87
2022-12-25T02:12:37.714Z,24.07
2022-12-25T02:15:46.668Z,22.30
2022-12-25T02:18:58.227Z,21.50
2022-12-25T02:22:36.951Z,21.13
2022-12-25T02:25:58.927Z,24.03
2022-12-25T02:29:04.811Z,22.88
2022-12-25T02:32:23.588Z,19.17
2022-12-25T02:35:33.746Z,22.20
2022-12-25T02:39:04.946Z,22.87
2022-12-25T02:42:07.800Z,22.97
2022-12-25T02:45:25.006Z,21.52
2022-12-25T02:48:43.587Z,23.20
2022-12-25T02:52:17.485Z,22.47
2022-12-25T02:55:45.589Z,22.30
2022-12-25T02:59:04.147Z,21.57
2022-12-25T03:02:21.749Z,20.53
2022-12-25T03:05:42.651Z,19.10
2022-12-25T03:08:43.437Z,19.70
2022-12-25T03:11:41.166Z,19.97
2022-12-25T03:14:58.237Z,20.07
2022-12-25T03:17:59.354Z,22.20
2022-12-25T03:21:15.561Z,22.80
2022-12-25T03:24:31.763Z,20.33
2022-12-25T03:27:33.933Z,21.37
2022-12-25T03:31:06.531Z,20.83
2022-12-25T03:34:39.584Z,19.63
2022-12-25T03:38:30.678Z,16.97
2022-12-25T03:42:10.172Z,15.98
2022-12-25T03:45:40.273Z,15.00
2022-12-25T03:49:01.412Z,15.77
2022-12-25T03:52:20.472Z,16.03
2022-12-25T03:55:38.265Z,17.63
2022-12-25T03:58:54.940Z,19.93
2022-12-25T04:02:11.883Z,20.03
2022-12-25T04:05:45.031Z,18.47
2022-12-25T04:09:01.210Z,20.83
2022-12-25T04:12:17.071Z,19.47
2022-12-25T04:15:33.305Z,19.60
2022-12-25T04:18:49.485Z,34.97
2022-12-25T04:22:05.584Z,25.73
2022-12-25T04:25:21.663Z,25.93
2022-12-25T04:28:37.635Z,25.07
2022-12-25T04:31:54.031Z,30.83
2022-12-25T04:35:10.052Z,30.27
2022-12-25T04:38:07.720Z,33.63
2022-12-25T04:41:05.778Z,33.83
2022-12-25T04:44:03.992Z,33.50
2022-12-25T04:47:05.857Z,31.47
2022-12-25T04:50:07.756Z,32.97
2022-12-25T04:53:05.380Z,31.80
2022-12-25T04:56:03.460Z,34.27
2022-12-25T04:59:01.262Z,34.60
2022-12-25T05:01:59.044Z,34.70
2022-12-25T05:04:56.801Z,32.83
2022-12-25T05:07:54.588Z,38.90
2022-12-25T05:10:52.223Z,39.83
2022-12-25T05:13:50.011Z,38.23
2022-12-25T05:16:47.761Z,37.77
2022-12-25T05:19:45.502Z,34.40
2022-12-25T05:22:44.012Z,40.43
2022-12-25T05:25:42.011Z,38.03
2022-12-25T05:28:39.733Z,36.93
2022-12-25T05:31:37.689Z,38.17
2022-12-25T05:34:35.370Z,37.53
2022-12-25T05:37:33.222Z,38.83
2022-12-25T05:40:31.070Z,36.00
2022-12-25T05:43:29.650Z,33.33
2022-12-25T05:46:27.377Z,35.80
2022-12-25T05:49:25.563Z,33.17
2022-12-25T05:52:23.252Z,32.67
2022-12-25T05:55:21.258Z,35.83
2022-12-25T05:58:18.936Z,39.80
2022-12-25T06:01:20.526Z,38.23
2022-12-25T06:04:18.240Z,37.27
2022-12-25T06:07:16.018Z,37.30
2022-12-25T06:10:14.397Z,38.47
2022-12-25T06:13:12.138Z,47.45
2022-12-25T06:16:12.197Z,48.60
2022-12-25T06:19:10.055Z,53.30
2022-12-25T06:22:07.651Z,59.10
2022-12-25T06:25:05.737Z,62.22
2022-12-25T06:28:03.423Z,61.85
2022-12-25T06:31:10.412Z,68.15
2022-12-25T06:34:08.170Z,68.47
2022-12-25T06:37:06.013Z,69.00
2022-12-25T06:40:03.737Z,82.53
2022-12-25T06:43:01.475Z,80.57
2022-12-25T06:46:04.273Z,89.80
2022-12-25T06:49:02.143Z,79.40
2022-12-25T06:51:59.836Z,87.60
2022-12-25T06:54:58.500Z,85.15
2022-12-25T06:57:56.184Z,83.68
2022-12-25T07:00:54.213Z,79.88
2022-12-25T07:03:56.347Z,85.55
2022-12-25T07:06:54.205Z,84.20
2022-12-25T07:09:51.816Z,86.85
2022-12-25T07:12:49.705Z,84.15
2022-12-25T07:15:48.062Z,82.65
2022-12-25T07:18:45.946Z,80.47
2022-12-25T07:21:43.556Z,84.28
2022-12-25T07:24:41.351Z,84.07
2022-12-25T07:27:38.995Z,86.30
2022-12-25T07:30:38.224Z,92.88
2022-12-25T07:33:36.605Z,91.53
2022-12-25T07:36:34.299Z,92.10
2022-12-25T07:39:32.203Z,87.03
2022-12-25T07:42:29.972Z,85.63
2022-12-25T07:45:27.880Z,86.90
2022-12-25T07:48:26.933Z,84.65
2022-12-25T07:51:24.603Z,87.68
2022-12-25T07:54:22.410Z,84.20
2022-12-25T07:57:20.003Z,86.18
2022-12-25T08:00:18.382Z,89.07
2022-12-25T08:03:17.356Z,87.53
2022-12-25T08:06:15.545Z,83.63
2022-12-25T08:09:13.815Z,87.05
2022-12-25T08:12:11.737Z,87.95
2022-12-25T08:15:09.782Z,84.10
2022-12-25T08:18:07.525Z,87.28
2022-12-25T08:21:10.183Z,89.78
2022-12-25T08:24:08.142Z,88.47
2022-12-25T08:27:06.346Z,90.80
2022-12-25T08:30:04.514Z,89.97
2022-12-25T08:33:02.481Z,94.18
2022-12-25T08:36:11.553Z,99.40
2022-12-25T08:39:09.724Z,102.70
2022-12-25T08:42:07.463Z,93.47
2022-12-25T08:45:05.850Z,97.35
2022-12-25T08:48:03.634Z,98.10
2022-12-25T08:51:02.055Z,103.18
2022-12-25T08:54:01.595Z,104.72
2022-12-25T08:57:03.050Z,104.90
2022-12-25T09:00:01.040Z,106.18
2022-12-25T09:02:58.809Z,106.32
2022-12-25T09:05:56.631Z,107.80
2022-12-25T09:08:54.314Z,115.85
2022-12-25T09:11:52.199Z,113.97
2022-12-25T09:14:49.925Z,114.68
2022-12-25T09:17:47.760Z,113.95
2022-12-25T09:20:45.445Z,115.15
2022-12-25T09:23:43.567Z,115.65
2022-12-25T09:26:41.257Z,115.55
2022-12-25T09:29:39.630Z,115.05
2022-12-25T09:32:37.504Z,113.88
2022-12-25T09:35:35.501Z,114.60
2022-12-25T09:38:33.713Z,119.78
2022-12-25T09:41:36.177Z,112.57
2022-12-25T09:44:42.954Z,114.47
2022-12-25T09:47:44.400Z,113.47
2022-12-25T09:50:51.706Z,116.35
2022-12-25T09:53:55.850Z,115.40
2022-12-25T09:56:53.545Z,114.43
2022-12-25T09:59:56.555Z,110.55
2022-12-25T10:03:14.841Z,119.30
2022-12-25T10:06:18.302Z,119.53
2022-12-25T10:12:31.358Z,106.65
2022-12-25T10:16:01.041Z,110.22
2022-12-25T10:19:17.730Z,111.50
2022-12-25T10:22:23.007Z,116.20
2022-12-25T10:25:25.560Z,111.57
2022-12-25T10:28:34.394Z,121.80
2022-12-25T10:31:37.609Z,118.32
2022-12-25T10:34:37.735Z,115.22
2022-12-25T10:37:35.429Z,118.90
2022-12-25T10:40:39.578Z,120.82
2022-12-25T10:43:46.129Z,120.32
2022-12-25T10:46:49.869Z,117.60
2022-12-25T10:49:47.921Z,118.07
2022-12-25T10:53:18.736Z,121.50
2022-12-25T10:56:19.982Z,116.88
2022-12-25T10:59:17.747Z,113.57
2022-12-25T11:02:24.788Z,116.70
2022-12-25T11:05:29.667Z,114.53
2022-12-25T11:08:30.247Z,117.03
2022-12-25T11:11:30.251Z,108.93
2022-12-25T11:14:29.961Z,107.67
2022-12-25T11:17:28.410Z,106.60
2022-12-25T11:20:26.589Z,100.47
2022-12-25T11:23:26.125Z,104.13
2022-12-25T11:26:24.105Z,104.20
2022-12-25T11:29:33.813Z,106.70
2022-12-25T11:32:55.923Z,104.30
2022-12-25T11:35:56.144Z,95.03
2022-12-25T11:38:53.974Z,96.77
2022-12-25T11:42:49.189Z,94.10
2022-12-25T11:45:54.747Z,103.30
2022-12-25T11:49:01.241Z,99.50
2022-12-25T11:51:59.182Z,96.00
2022-12-25T11:55:04.928Z,100.20
2022-12-25T11:58:14.664Z,93.90
2022-12-25T12:01:33.383Z,99.00
2022-12-25T12:04:42.989Z,97.27
2022-12-25T12:07:54.175Z,97.13
2022-12-25T12:11:16.912Z,97.37
2022-12-25T12:17:24.046Z,87.77
2022-12-25T12:20:31.447Z,95.77
2022-12-25T12:23:32.064Z,86.90
2022-12-25T12:26:32.512Z,86.60
2022-12-25T12:29:38.369Z,92.77
2022-12-25T12:32:43.872Z,88.70
2022-12-25T12:35:41.960Z,85.80
2022-12-25T12:38:41.715Z,90.60
2022-12-25T12:41:47.273Z,89.03
2022-12-25T12:44:48.547Z,93.07
2022-12-25T12:47:50.018Z,93.67
2022-12-25T12:50:48.006Z,93.27
2022-12-25T12:53:46.177Z,93.13
2022-12-25T12:56:54.977Z,92.97
2022-12-25T12:59:52.994Z,94.43
2022-12-25T13:03:23.621Z,92.33
2022-12-25T13:06:30.357Z,90.17
2022-12-25T13:09:55.847Z,90.90
2022-12-25T13:12:57.540Z,87.53
2022-12-25T13:15:56.569Z,84.60
2022-12-25T13:18:56.437Z,84.10
2022-12-25T13:22:04.253Z,87.23
2022-12-25T13:25:06.054Z,84.33
2022-12-25T13:28:05.389Z,88.53
2022-12-25T13:31:24.840Z,83.13
2022-12-25T13:34:34.782Z,83.67
2022-12-25T13:37:32.838Z,81.50
2022-12-25T13:40:30.794Z,82.97
2022-12-25T13:43:30.514Z,84.00
2022-12-25T13:46:28.875Z,79.43
2022-12-25T13:49:27.617Z,82.70
2022-12-25T13:52:40.664Z,81.77
2022-12-25T13:58:37.649Z,77.40
2022-12-25T14:01:35.925Z,79.23
2022-12-25T14:04:44.031Z,82.00
2022-12-25T14:07:41.913Z,83.93
2022-12-25T14:10:41.518Z,87.47
2022-12-25T14:13:43.627Z,98.47
2022-12-25T14:16:44.057Z,95.83
2022-12-25T14:19:42.142Z,92.67
2022-12-25T14:22:41.878Z,93.10
2022-12-25T14:25:45.237Z,91.47
2022-12-25T14:31:41.569Z,80.17
2022-12-25T14:34:39.430Z,86.77
2022-12-25T14:37:39.032Z,84.90
2022-12-25T14:40:37.015Z,88.57
2022-12-25T14:43:36.987Z,85.67
2022-12-25T14:46:36.060Z,92.10
2022-12-25T14:49:34.294Z,86.97
2022-12-25T14:52:43.843Z,90.17
2022-12-25T14:55:47.771Z,87.27
2022-12-25T14:58:51.959Z,88.37
2022-12-25T15:02:02.031Z,82.50
2022-12-25T15:05:00.217Z,84.17
2022-12-25T15:08:03.033Z,82.60
2022-12-25T15:11:03.213Z,79.68
2022-12-25T15:14:01.866Z,81.30
2022-12-25T15:17:02.334Z,81.37
2022-12-25T15:20:02.029Z,80.57
2022-12-25T15:23:18.845Z,84.17
2022-12-25T15:26:17.616Z,76.83
2022-12-25T15:29:15.521Z,73.57
2022-12-25T15:32:19.963Z,74.73
2022-12-25T15:35:21.771Z,75.53
2022-12-25T15:38:19.777Z,78.37
2022-12-25T15:41:37.988Z,74.43
2022-12-25T15:44:35.969Z,75.73
2022-12-25T15:47:34.062Z,76.30
2022-12-25T15:50:33.413Z,77.37
2022-12-25T15:53:31.322Z,77.17
2022-12-25T15:56:29.771Z,72.63
2022-12-25T15:59:27.806Z,69.17
2022-12-25T16:02:26.200Z,69.40
2022-12-25T16:05:24.421Z,70.13
2022-12-25T16:08:22.782Z,68.60
2022-12-25T16:11:20.741Z,80.00
2022-12-25T16:14:20.195Z,75.27
2022-12-25T16:17:18.106Z,73.20
2022-12-25T16:20:16.164Z,70.47
2022-12-25T16:23:14.417Z,71.53
2022-12-25T16:26:12.503Z,65.70
2022-12-25T16:29:10.970Z,60.60
2022-12-25T16:32:12.391Z,58.07
2022-12-25T16:35:11.893Z,58.57
2022-12-25T16:38:10.040Z,59.40
2022-12-25T16:41:09.770Z,57.47
2022-12-25T16:44:10.905Z,60.87
2022-12-25T16:47:18.247Z,56.83
2022-12-25T16:50:17.038Z,54.53
2022-12-25T16:53:14.962Z,54.13
2022-12-25T16:56:15.432Z,51.03
2022-12-25T16:59:13.185Z,52.30
2022-12-25T17:02:19.934Z,50.03
2022-12-25T17:05:17.899Z,44.17
2022-12-25T17:08:15.880Z,44.20
2022-12-25T17:11:14.679Z,43.77
2022-12-25T17:14:12.734Z,39.40
2022-12-25T17:17:10.820Z,43.90
2022-12-25T17:20:09.606Z,44.97
2022-12-25T17:23:07.404Z,45.57
2022-12-25T17:26:06.289Z,50.83
2022-12-25T17:29:04.606Z,47.17
2022-12-25T17:32:02.622Z,44.50
2022-12-25T17:35:00.421Z,42.93
2022-12-25T17:37:58.438Z,44.90
2022-12-25T17:40:58.911Z,46.97
2022-12-25T17:43:57.009Z,48.70
2022-12-25T17:46:54.880Z,54.43
2022-12-25T17:49:52.789Z,53.83
2022-12-25T17:52:50.592Z,54.67
2022-12-25T17:55:48.759Z,60.57
2022-12-25T17:58:52.130Z,49.30
2022-12-25T18:04:48.644Z,41.93
2022-12-25T18:07:46.532Z,40.10
2022-12-25T18:10:44.977Z,41.07
2022-12-25T18:13:45.779Z,41.20
2022-12-25T18:16:46.037Z,38.43
2022-12-25T18:19:44.134Z,40.70
2022-12-25T18:22:42.004Z,36.73
2022-12-25T18:25:43.676Z,42.03
2022-12-25T18:28:43.270Z,40.17
2022-12-25T18:31:41.698Z,41.13
2022-12-25T18:34:39.880Z,43.47
2022-12-25T18:37:40.244Z,43.83
2022-12-25T18:40:44.326Z,38.27
2022-12-25T18:43:52.455Z,42.30
2022-12-25T18:46:53.453Z,41.27
2022-12-25T18:49:51.886Z,40.83
2022-12-25T18:52:51.600Z,41.07
2022-12-25T18:55:50.446Z,40.23
2022-12-25T18:58:48.795Z,41.47
2022-12-25T19:01:47.319Z,38.53
2022-12-25T19:04:45.605Z,34.17
2022-12-25T19:07:44.111Z,29.53
2022-12-25T19:10:42.951Z,27.57
2022-12-25T19:13:41.795Z,26.80
2022-12-25T19:16:39.940Z,24.93
2022-12-25T19:19:40.421Z,24.40
2022-12-25T19:22:38.744Z,26.13
2022-12-25T19:25:39.669Z,27.23
2022-12-25T19:28:38.642Z,27.10
2022-12-25T19:31:38.783Z,26.37
2022-12-25T19:34:36.949Z,27.47
2022-12-25T19:37:35.160Z,28.27
2022-12-25T19:40:36.829Z,25.90
2022-12-25T19:43:38.077Z,29.93
2022-12-25T19:46:39.037Z,28.97
2022-12-25T19:49:37.472Z,26.77
2022-12-25T19:52:35.845Z,25.03
2022-12-25T19:55:34.025Z,25.20
2022-12-25T19:58:32.219Z,23.90
2022-12-25T20:01:31.475Z,27.10
2022-12-25T20:04:29.834Z,31.13
2022-12-25T20:07:28.045Z,28.73
2022-12-25T20:10:26.157Z,28.37
2022-12-25T20:13:24.426Z,27.93
2022-12-25T20:16:23.287Z,30.93
2022-12-25T20:19:21.470Z,28.63
2022-12-25T20:22:19.864Z,30.97
2022-12-25T20:25:18.184Z,29.27
2022-12-25T20:28:16.379Z,28.30
2022-12-25T20:31:21.828Z,32.13
2022-12-25T20:34:19.919Z,29.20
2022-12-25T20:37:18.085Z,32.40
2022-12-25T20:40:16.354Z,29.07
2022-12-25T20:43:14.587Z,26.80
2022-12-25T20:46:13.904Z,26.63
2022-12-25T20:49:12.211Z,27.07
2022-12-25T20:52:10.229Z,28.03
2022-12-25T20:55:08.748Z,28.17
2022-12-25T20:58:06.791Z,26.80
2022-12-25T21:01:11.205Z,25.40
2022-12-25T21:04:14.443Z,24.60
2022-12-25T21:07:14.316Z,24.53
2022-12-25T21:10:12.414Z,25.43
2022-12-25T21:13:10.715Z,23.60
2022-12-25T21:16:13.580Z,27.97
2022-12-25T21:19:12.179Z,25.98
2022-12-25T21:22:10.298Z,26.03
2022-12-25T21:25:08.870Z,26.97
2022-12-25T21:28:07.025Z,26.03
2022-12-25T21:31:07.058Z,23.63
2022-12-25T21:34:05.111Z,22.03
2022-12-25T21:37:03.314Z,21.70
2022-12-25T21:40:01.407Z,21.13
2022-12-25T21:43:01.272Z,23.27
2022-12-25T21:46:03.810Z,25.47
2022-12-25T21:49:02.101Z,24.00
2022-12-25T21:52:15.505Z,26.57
2022-12-25T21:55:15.485Z,27.57
2022-12-25T21:58:13.550Z,22.87
2022-12-25T22:01:12.530Z,24.33
2022-12-25T22:04:11.004Z,35.60
2022-12-25T22:07:20.675Z,29.13
2022-12-25T22:10:18.824Z,33.47
2022-12-25T22:13:32.443Z,29.00
2022-12-25T22:16:45.875Z,26.07
2022-12-25T22:19:45.287Z,32.83
2022-12-25T22:22:44.093Z,28.67
2022-12-25T22:25:42.324Z,32.03
2022-12-25T22:28:40.521Z,30.83
2022-12-25T22:31:44.701Z,30.20
2022-12-25T22:34:45.197Z,27.57
2022-12-25T22:37:43.976Z,25.03
2022-12-25T22:40:42.093Z,27.97
2022-12-25T22:44:15.400Z,25.37
2022-12-25T22:46:59.102Z,27.27
2022-12-25T22:49:57.544Z,30.87
2022-12-25T22:52:55.610Z,33.50
2022-12-25T22:55:53.814Z,34.33
2022-12-25T22:58:51.865Z,31.57
2022-12-25T23:01:51.231Z,29.23
2022-12-25T23:04:50.000Z,25.77
2022-12-25T23:07:48.381Z,34.17
2022-12-25T23:10:46.487Z,27.90
2022-12-25T23:14:00.055Z,23.73
2022-12-25T23:16:59.537Z,22.23
2022-12-25T23:20:15.320Z,23.37
2022-12-25T23:23:32.022Z,26.40
2022-12-25T23:26:30.200Z,23.20
2022-12-25T23:29:43.853Z,23.13
2022-12-25T23:32:42.980Z,26.30
2022-12-25T23:35:41.238Z,21.87
2022-12-25T23:38:39.459Z,22.53
2022-12-25T23:41:38.306Z,22.77
2022-12-25T23:44:36.803Z,22.47
2022-12-25T23:47:34.857Z,19.43
2022-12-25T23:50:33.284Z,17.90
2022-12-25T23:53:31.845Z,20.13
2022-12-25T23:56:30.203Z,18.77
2022-12-25T23:59:30.879Z,17.73
